Time;durP1;ratioP1;P1;durP2;ratioP2;P2;SDS_P1;SDS_P2;PMS_P1;PMS_P2;Temp;Humidity;BMP_temperature;BMP_pressure;BME280_temperature;BME280_humidity;BME280_pressure;Samples;Min_cycle;Max_cycle;Signal;HPM_P1;HPM_P2
2023/05/27 00:02:23;;;;;;;6.77;3.10;;;10.70;99.90;;;;;;5015276;28;20176;-75
2023/05/27 00:04:48;;;;;;;6.40;2.93;;;10.70;99.90;;;;;;5015486;28;20411;-75
2023/05/27 00:07:14;;;;;;;5.33;3.00;;;10.70;99.90;;;;;;5014992;28;20453;-75
2023/05/27 00:09:39;;;;;;;4.00;2.50;;;10.60;99.90;;;;;;5015391;28;20662;-75
2023/05/27 00:12:05;;;;;;;5.37;2.60;;;10.60;99.90;;;;;;5015228;28;20733;-75
2023/05/27 00:14:31;;;;;;;4.50;3.07;;;10.50;99.90;;;;;;5015079;28;20210;-75
2023/05/27 00:16:57;;;;;;;5.40;2.67;;;10.50;99.90;;;;;;5014837;28;20621;-75
2023/05/27 00:19:24;;;;;;;2.70;2.07;;;10.50;99.90;;;;;;5015068;28;20176;-75
2023/05/27 00:21:52;;;;;;;6.13;2.73;;;10.40;99.90;;;;;;5015138;28;20552;-75
2023/05/27 00:24:18;;;;;;;7.17;3.30;;;10.40;99.90;;;;;;4997420;28;20595;-75
2023/05/27 00:26:43;;;;;;;4.10;2.23;;;10.30;99.90;;;;;;5014924;28;20488;-75
2023/05/27 00:29:09;;;;;;;4.60;2.77;;;10.30;99.90;;;;;;5014483;28;20463;-75
2023/05/27 00:31:34;;;;;;;4.00;2.60;;;10.30;99.90;;;;;;5014915;28;20222;-75
2023/05/27 00:34:00;;;;;;;5.87;2.30;;;10.20;99.90;;;;;;5014794;28;20176;-75
2023/05/27 00:36:26;;;;;;;8.33;2.80;;;10.20;99.90;;;;;;5014821;28;20191;-75
2023/05/27 00:38:51;;;;;;;5.03;2.60;;;10.10;99.90;;;;;;5014490;28;20199;-74
2023/05/27 00:41:18;;;;;;;9.40;2.93;;;10.10;99.90;;;;;;5014728;28;20176;-74
2023/05/27 00:43:44;;;;;;;4.47;2.30;;;10.10;99.90;;;;;;5014552;28;20180;-74
2023/05/27 00:46:10;;;;;;;6.70;3.07;;;10.00;99.90;;;;;;5014603;28;20415;-74
2023/05/27 00:48:36;;;;;;;11.93;3.23;;;10.00;99.90;;;;;;5014154;28;20212;-75
2023/05/27 00:51:02;;;;;;;6.30;2.17;;;10.00;99.90;;;;;;4996944;28;20427;-75
2023/05/27 00:53:27;;;;;;;4.03;2.00;;;9.90;99.90;;;;;;5014344;28;20473;-75
2023/05/27 00:55:54;;;;;;;4.00;2.70;;;9.90;99.90;;;;;;5014401;28;20168;-75
2023/05/27 00:58:21;;;;;;;3.97;3.07;;;9.80;99.90;;;;;;5014006;28;20287;-74
2023/05/27 01:00:50;;;;;;;10.73;2.67;;;9.80;99.90;;;;;;5014354;28;20411;-75
2023/05/27 01:03:16;;;;;;;3.80;2.40;;;9.80;99.90;;;;;;5014154;28;20450;-75
2023/05/27 01:05:42;;;;;;;6.43;2.63;;;9.70;99.90;;;;;;5014237;28;20415;-75
2023/05/27 01:08:36;;;;;;;8.23;3.47;;;9.70;99.90;;;;;;5012542;28;20463;-75
2023/05/27 01:11:07;;;;;;;2.87;1.93;;;9.70;99.90;;;;;;5014190;28;20346;-75
2023/05/27 01:13:36;;;;;;;5.50;3.40;;;9.70;99.90;;;;;;5013978;28;20769;-75
2023/05/27 01:16:08;;;;;;;12.23;2.73;;;9.60;99.90;;;;;;5014020;28;20407;-75
2023/05/27 01:18:34;;;;;;;4.60;2.80;;;9.60;99.90;;;;;;5013859;28;20434;-75
2023/05/27 01:21:05;;;;;;;21.30;3.60;;;9.60;99.90;;;;;;5014011;28;20411;-75
2023/05/27 01:23:31;;;;;;;4.10;2.53;;;9.60;99.90;;;;;;5013969;28;20392;-75
2023/05/27 01:25:57;;;;;;;8.93;3.00;;;9.60;99.90;;;;;;5013813;28;20417;-75
2023/05/27 01:28:22;;;;;;;6.70;3.17;;;9.50;99.90;;;;;;4995693;28;20207;-75
2023/05/27 01:30:51;;;;;;;5.20;2.77;;;9.50;99.90;;;;;;5013768;28;20175;-75
2023/05/27 01:33:21;;;;;;;3.47;2.47;;;9.50;99.90;;;;;;4996143;28;20544;-75
2023/05/27 01:35:49;;;;;;;10.63;3.63;;;9.50;99.90;;;;;;5013679;28;20941;-75
2023/05/27 01:38:19;;;;;;;8.90;3.43;;;9.40;99.90;;;;;;5013259;28;20427;-75
2023/05/27 01:40:47;;;;;;;5.53;2.10;;;9.40;99.90;;;;;;4995888;28;20419;-75
2023/05/27 01:43:14;;;;;;;8.77;3.63;;;9.40;99.90;;;;;;5013475;28;20972;-75
2023/05/27 01:45:41;;;;;;;6.73;2.80;;;9.30;99.90;;;;;;5013545;28;20415;-75
2023/05/27 01:48:07;;;;;;;4.90;1.93;;;9.30;99.90;;;;;;5013019;28;20459;-75
2023/05/27 01:50:33;;;;;;;5.40;2.50;;;9.30;99.90;;;;;;5013359;28;20406;-75
2023/05/27 01:53:00;;;;;;;13.03;3.60;;;9.30;99.90;;;;;;5013361;28;20433;-75
2023/05/27 01:55:25;;;;;;;3.97;1.77;;;9.20;99.90;;;;;;5013336;28;20746;-74
2023/05/27 01:57:51;;;;;;;6.53;2.83;;;9.20;99.90;;;;;;5012978;28;20482;-75
2023/05/27 02:00:16;;;;;;;4.83;2.70;;;9.20;99.90;;;;;;5013694;28;20161;-74
2023/05/27 02:02:42;;;;;;;5.27;2.00;;;9.20;99.90;;;;;;5013173;28;20226;-75
2023/05/27 02:05:08;;;;;;;4.60;2.87;;;9.10;99.90;;;;;;5013151;28;20176;-75
2023/05/27 02:07:33;;;;;;;3.27;2.37;;;9.10;99.90;;;;;;5012828;28;20187;-75
2023/05/27 02:09:59;;;;;;;4.23;3.20;;;9.10;99.90;;;;;;5013113;28;20230;-75
2023/05/27 02:12:24;;;;;;;5.50;2.70;;;9.10;99.90;;;;;;5012861;28;20255;-74
2023/05/27 02:14:51;;;;;;;4.40;2.47;;;9.10;99.90;;;;;;5013073;28;20203;-75
2023/05/27 02:17:16;;;;;;;9.57;2.93;;;9.00;99.90;;;;;;5012695;28;20188;-75
2023/05/27 02:19:42;;;;;;;3.73;2.47;;;9.00;99.90;;;;;;5012723;28;20542;-75
2023/05/27 02:22:08;;;;;;;3.80;2.13;;;9.00;99.90;;;;;;5012591;28;20638;-74
2023/05/27 02:24:33;;;;;;;9.10;3.07;;;9.00;99.90;;;;;;5012765;28;20744;-75
2023/05/27 02:26:59;;;;;;;8.17;3.13;;;8.90;99.90;;;;;;5012544;28;20623;-75
2023/05/27 02:29:25;;;;;;;3.40;2.63;;;8.90;99.90;;;;;;5012648;28;20319;-75
2023/05/27 02:31:50;;;;;;;9.33;3.83;;;8.90;99.90;;;;;;5012673;28;20435;-75
2023/05/27 02:34:16;;;;;;;3.30;2.40;;;8.90;99.90;;;;;;5012648;28;20214;-75
2023/05/27 02:36:42;;;;;;;7.17;3.00;;;8.80;99.90;;;;;;5012606;28;20574;-75
2023/05/27 02:39:08;;;;;;;5.70;3.13;;;8.80;99.90;;;;;;5012505;28;20604;-75
2023/05/27 02:41:34;;;;;;;8.13;3.40;;;8.80;99.90;;;;;;5012551;28;20407;-75
2023/05/27 02:44:00;;;;;;;3.53;2.60;;;8.80;99.90;;;;;;5012550;28;20406;-75
2023/05/27 02:46:25;;;;;;;5.93;2.93;;;8.80;99.90;;;;;;4994931;28;20176;-75
2023/05/27 02:48:51;;;;;;;4.43;2.73;;;8.70;99.90;;;;;;5012142;28;20206;-75
2023/05/27 02:51:16;;;;;;;4.70;3.10;;;8.70;99.90;;;;;;5012378;28;20169;-75
2023/05/27 02:53:42;;;;;;;6.67;3.20;;;8.70;99.90;;;;;;5012437;28;20175;-75
2023/05/27 02:56:07;;;;;;;4.33;3.00;;;8.70;99.90;;;;;;5012332;28;20625;-75
2023/05/27 02:58:33;;;;;;;4.80;2.10;;;8.70;99.90;;;;;;5012125;28;20188;-75
2023/05/27 03:00:58;;;;;;;4.80;2.50;;;8.60;99.90;;;;;;5012298;28;20263;-75
2023/05/27 03:03:25;;;;;;;7.60;3.60;;;8.60;99.90;;;;;;5012241;28;20168;-75
2023/05/27 03:05:50;;;;;;;13.40;2.33;;;8.60;99.90;;;;;;5012229;28;20218;-75
2023/05/27 03:08:16;;;;;;;5.07;2.83;;;8.60;99.90;;;;;;5011942;28;20545;-75
2023/05/27 03:10:41;;;;;;;14.87;3.60;;;8.60;99.90;;;;;;5012264;28;20258;-75
2023/05/27 03:13:07;;;;;;;5.87;3.03;;;8.60;99.90;;;;;;5012184;28;20314;-75
2023/05/27 03:15:32;;;;;;;5.03;2.97;;;8.50;99.90;;;;;;5012152;28;20283;-75
2023/05/27 03:17:58;;;;;;;5.97;3.90;;;8.50;99.90;;;;;;5011895;28;20203;-75
2023/05/27 03:20:24;;;;;;;5.47;3.27;;;8.50;99.90;;;;;;5012113;28;20172;-75
2023/05/27 03:22:50;;;;;;;3.13;2.70;;;8.50;99.90;;;;;;5012103;28;20164;-75
2023/05/27 03:25:15;;;;;;;4.20;2.47;;;8.40;99.90;;;;;;5012103;28;20247;-75
2023/05/27 03:27:41;;;;;;;6.20;3.13;;;8.40;99.90;;;;;;5011750;28;20517;-75
2023/05/27 03:30:07;;;;;;;12.63;3.30;;;8.40;99.90;;;;;;5012107;28;20663;-75
2023/05/27 03:32:33;;;;;;;6.97;3.40;;;8.40;99.90;;;;;;5012992;28;20251;-75
2023/05/27 03:34:59;;;;;;;9.20;2.90;;;8.40;99.90;;;;;;5015870;28;20398;-75
2023/05/27 03:37:25;;;;;;;5.83;2.83;;;8.40;99.90;;;;;;5015671;28;20419;-75
2023/05/27 03:39:50;;;;;;;9.13;2.60;;;8.40;99.90;;;;;;5015949;28;20457;-75
2023/05/27 03:42:17;;;;;;;7.03;3.43;;;8.40;99.90;;;;;;5015848;28;20168;-75
2023/05/27 03:44:43;;;;;;;3.60;2.67;;;8.40;99.90;;;;;;5015713;28;20168;-75
2023/05/27 03:47:08;;;;;;;4.77;2.90;;;8.40;99.90;;;;;;5015574;28;20786;-75
2023/05/27 03:49:34;;;;;;;6.20;2.90;;;8.40;99.90;;;;;;5015603;28;20207;-75
2023/05/27 03:51:59;;;;;;;6.13;3.40;;;8.40;99.90;;;;;;5015674;28;20172;-75
2023/05/27 03:54:25;;;;;;;4.07;3.20;;;8.40;99.90;;;;;;5015520;28;20574;-75
2023/05/27 03:56:51;;;;;;;4.47;2.87;;;8.50;99.90;;;;;;5015165;28;20168;-74
2023/05/27 03:59:17;;;;;;;4.53;2.73;;;8.50;99.90;;;;;;5015442;28;20183;-75
2023/05/27 04:01:44;;;;;;;3.57;2.70;;;8.50;99.90;;;;;;5015413;28;20252;-75
2023/05/27 04:04:09;;;;;;;7.07;3.87;;;8.50;99.90;;;;;;5015283;28;20494;-75
2023/05/27 04:06:35;;;;;;;7.63;3.70;;;8.60;99.90;;;;;;5015318;28;20545;-75
2023/05/27 04:09:01;;;;;;;8.83;2.60;;;8.60;99.90;;;;;;5014912;28;21133;-75
2023/05/27 04:11:27;;;;;;;5.87;4.07;;;8.60;99.90;;;;;;5015183;28;20565;-75
2023/05/27 04:13:53;;;;;;;7.43;3.13;;;8.70;99.90;;;;;;5015139;28;20307;-75
2023/05/27 04:16:18;;;;;;;5.00;3.17;;;8.70;99.90;;;;;;5015282;28;20411;-75
2023/05/27 04:18:48;;;;;;;4.27;3.00;;;8.80;99.90;;;;;;5014878;28;20287;-75
2023/05/27 04:21:15;;;;;;;8.00;3.20;;;8.80;99.90;;;;;;5015348;28;20247;-75
2023/05/27 04:23:40;;;;;;;3.00;2.40;;;8.80;99.90;;;;;;5014972;28;20415;-76
2023/05/27 04:26:06;;;;;;;6.60;3.33;;;8.90;99.90;;;;;;5015173;28;20412;-77
2023/05/27 04:28:34;;;;;;;6.83;3.60;;;9.00;99.90;;;;;;5014497;28;20210;-77
2023/05/27 04:31:00;;;;;;;10.23;3.10;;;9.10;99.90;;;;;;5015052;28;20660;-77
2023/05/27 04:33:26;;;;;;;7.00;2.97;;;9.20;99.90;;;;;;5014951;28;20447;-77
2023/05/27 04:35:53;;;;;;;8.73;2.90;;;9.30;99.90;;;;;;5015184;28;20442;-77
2023/05/27 04:38:21;;;;;;;5.23;3.40;;;9.40;99.90;;;;;;5014559;28;20423;-77
2023/05/27 04:40:52;;;;;;;10.40;3.30;;;9.50;99.90;;;;;;5014868;28;20439;-77
2023/05/27 04:43:18;;;;;;;5.90;2.70;;;9.60;99.90;;;;;;5014487;28;20403;-77
2023/05/27 04:45:45;;;;;;;6.63;2.73;;;9.70;99.90;;;;;;5014690;28;20417;-77
2023/05/27 04:48:11;;;;;;;9.33;3.23;;;9.80;99.90;;;;;;4996761;28;20486;-77
2023/05/27 04:50:36;;;;;;;21.20;4.17;;;10.00;99.90;;;;;;5014889;28;20439;-77
2023/05/27 04:53:02;;;;;;;4.37;3.33;;;10.10;99.90;;;;;;5014701;28;20550;-77
2023/05/27 04:55:28;;;;;;;5.40;3.47;;;10.20;99.90;;;;;;5014731;28;20218;-77
2023/05/27 04:57:53;;;;;;;5.97;3.13;;;10.30;99.90;;;;;;5014292;28;20454;-77
2023/05/27 05:00:24;;;;;;;15.60;4.20;;;10.40;99.90;;;;;;5014480;28;20643;-77
2023/05/27 05:03:00;;;;;;;10.90;3.40;;;10.50;99.90;;;;;;5014581;28;20168;-77
2023/05/27 05:05:25;;;;;;;6.70;3.13;;;10.60;99.90;;;;;;5014408;28;20427;-77
2023/05/27 05:07:50;;;;;;;10.07;3.60;;;10.70;99.90;;;;;;4996498;28;21108;-77
2023/05/27 05:10:16;;;;;;;8.37;3.13;;;10.80;99.90;;;;;;4996666;28;20207;-77
2023/05/27 05:12:41;;;;;;;5.87;3.03;;;10.90;99.90;;;;;;5014030;28;20178;-77
2023/05/27 05:15:08;;;;;;;6.60;3.60;;;11.10;99.90;;;;;;5014132;28;20526;-77
2023/05/27 05:17:33;;;;;;;8.03;2.67;;;11.20;99.90;;;;;;5013778;28;20176;-77
2023/05/27 05:19:59;;;;;;;4.70;4.17;;;11.40;99.90;;;;;;5014046;28;20426;-78
2023/05/27 05:22:26;;;;;;;10.40;4.10;;;11.50;99.90;;;;;;5013991;28;20198;-77
2023/05/27 05:24:52;;;;;;;8.87;3.33;;;11.70;99.90;;;;;;4996241;28;20275;-78
2023/05/27 05:27:17;;;;;;;8.97;3.60;;;11.80;99.90;;;;;;5013530;28;20518;-77
2023/05/27 05:29:44;;;;;;;7.33;3.63;;;12.10;99.90;;;;;;5013440;28;20254;-78
2023/05/27 05:32:11;;;;;;;7.80;2.73;;;12.40;99.90;;;;;;5013711;28;20172;-77
2023/05/27 05:34:37;;;;;;;5.30;3.00;;;12.70;99.90;;;;;;5013855;28;20438;-78
2023/05/27 05:37:03;;;;;;;7.83;2.60;;;13.00;99.90;;;;;;5013382;28;20419;-78
2023/05/27 05:39:29;;;;;;;8.30;2.70;;;13.30;99.90;;;;;;5013943;28;20399;-78
2023/05/27 05:41:55;;;;;;;6.17;3.00;;;13.70;99.90;;;;;;5013896;28;20592;-78
2023/05/27 05:44:22;;;;;;;8.47;3.90;;;14.10;99.90;;;;;;5013828;28;20251;-78
2023/05/27 05:46:48;;;;;;;7.03;2.80;;;14.60;99.90;;;;;;5013980;28;20407;-78
2023/05/27 05:49:13;;;;;;;5.20;3.27;;;15.20;99.90;;;;;;5013992;28;20459;-78
2023/05/27 05:51:39;;;;;;;10.23;3.70;;;15.60;99.90;;;;;;5014763;28;20164;-78
2023/05/27 05:54:05;;;;;;;6.23;3.73;;;16.00;99.90;;;;;;5015189;28;20175;-78
2023/05/27 05:56:31;;;;;;;8.10;2.80;;;16.30;99.90;;;;;;5013637;28;20168;-76
2023/05/27 05:58:56;;;;;;;6.90;3.43;;;16.70;99.90;;;;;;5012837;28;20216;-77
2023/05/27 06:01:22;;;;;;;8.33;3.10;;;17.40;99.90;;;;;;5013096;28;20446;-77
2023/05/27 06:03:48;;;;;;;11.43;3.90;;;18.20;99.90;;;;;;5013251;28;20870;-77
2023/05/27 06:06:14;;;;;;;5.90;3.30;;;19.00;99.90;;;;;;5013299;28;20399;-77
2023/05/27 06:08:40;;;;;;;10.43;3.83;;;19.90;99.90;;;;;;5012778;28;20275;-77
2023/05/27 06:11:06;;;;;;;5.77;3.10;;;20.80;99.90;;;;;;5013212;28;20849;-77
2023/05/27 06:13:31;;;;;;;6.43;2.87;;;21.60;99.10;;;;;;4995587;28;20478;-77
2023/05/27 06:15:57;;;;;;;9.27;3.20;;;22.50;95.60;;;;;;4996366;28;20172;-77
2023/05/27 06:18:22;;;;;;;3.93;2.90;;;23.40;90.40;;;;;;5013591;28;20234;-77
2023/05/27 06:20:48;;;;;;;7.30;3.40;;;24.20;80.40;;;;;;5014072;28;20173;-78
2023/05/27 06:23:14;;;;;;;7.83;4.03;;;25.00;72.70;;;;;;5014739;28;20172;-78
2023/05/27 06:25:39;;;;;;;12.10;3.33;;;25.70;66.60;;;;;;4997310;28;20230;-78
2023/05/27 06:28:05;;;;;;;7.57;3.53;;;26.40;61.40;;;;;;4996955;28;20249;-78
2023/05/27 06:30:32;;;;;;;4.67;2.67;;;27.00;57.20;;;;;;4997881;28;20175;-78
2023/05/27 06:32:57;;;;;;;7.73;3.30;;;27.50;54.40;;;;;;5014253;28;20767;-78
2023/05/27 06:35:23;;;;;;;3.77;3.37;;;28.10;51.30;;;;;;5014791;28;20427;-78
2023/05/27 06:37:48;;;;;;;4.00;2.80;;;28.60;49.50;;;;;;5015175;28;20192;-78
2023/05/27 06:40:14;;;;;;;6.90;2.57;;;29.00;48.10;;;;;;4998214;28;20207;-78
2023/05/27 06:42:40;;;;;;;11.70;3.80;;;29.50;47.50;;;;;;5015643;28;20172;-78
2023/05/27 06:45:06;;;;;;;5.20;2.90;;;30.10;45.60;;;;;;5012528;28;20172;-78
2023/05/27 06:47:31;;;;;;;11.87;3.43;;;30.60;43.60;;;;;;5014368;28;20203;-76
2023/05/27 06:49:57;;;;;;;5.50;3.00;;;31.00;42.00;;;;;;4998611;28;20403;-77
2023/05/27 06:52:22;;;;;;;9.43;4.77;;;31.60;41.40;;;;;;5016989;28;20173;-77
2023/05/27 06:54:48;;;;;;;6.33;3.43;;;32.00;39.70;;;;;;5015391;28;20223;-77
2023/05/27 06:57:14;;;;;;;4.10;3.00;;;32.50;38.60;;;;;;5014205;28;20188;-77
2023/05/27 06:59:40;;;;;;;5.90;3.00;;;33.00;37.50;;;;;;5014402;28;20196;-76
2023/05/27 07:02:06;;;;;;;4.20;2.80;;;33.40;36.70;;;;;;5013415;28;20784;-67
2023/05/27 07:04:32;;;;;;;5.97;3.03;;;33.90;35.70;;;;;;5013464;28;20179;-74
2023/05/27 07:06:58;;;;;;;5.53;3.97;;;34.20;34.80;;;;;;5015109;28;20455;-74
2023/05/27 07:09:23;;;;;;;7.07;3.37;;;34.40;33.50;;;;;;5016301;28;20458;-74
2023/05/27 07:11:49;;;;;;;3.80;2.90;;;34.70;32.70;;;;;;5017550;28;20545;-74
2023/05/27 07:14:14;;;;;;;7.03;3.50;;;34.90;32.00;;;;;;5017193;28;20184;-73
2023/05/27 07:16:40;;;;;;;5.60;3.23;;;35.40;32.40;;;;;;4994650;28;20172;-72
2023/05/27 07:19:06;;;;;;;4.10;3.00;;;35.90;31.40;;;;;;5011906;28;20188;-72
2023/05/27 07:21:32;;;;;;;6.60;3.40;;;36.40;30.00;;;;;;5012126;28;20230;-72
2023/05/27 07:23:58;;;;;;;7.50;3.80;;;36.90;29.60;;;;;;5012083;28;20403;-72
2023/05/27 07:26:25;;;;;;;5.67;4.20;;;37.20;28.10;;;;;;5012058;28;20672;-73
2023/05/27 07:28:51;;;;;;;6.17;3.00;;;37.40;27.70;;;;;;5011635;28;20496;-73
2023/05/27 07:31:17;;;;;;;6.40;3.70;;;37.80;27.90;;;;;;5013791;28;20382;-74
2023/05/27 07:33:43;;;;;;;6.00;4.47;;;38.40;27.50;;;;;;5013855;28;20472;-72
2023/05/27 07:36:08;;;;;;;5.93;3.50;;;38.90;26.90;;;;;;5011864;28;20569;-72
2023/05/27 07:38:34;;;;;;;5.00;3.67;;;38.60;25.30;;;;;;5012189;28;20203;-74
2023/05/27 07:40:59;;;;;;;10.63;3.93;;;38.70;25.90;;;;;;4995748;28;20263;-74
2023/05/27 07:43:25;;;;;;;6.90;3.10;;;39.20;26.20;;;;;;5014195;28;20527;-73
2023/05/27 07:45:51;;;;;;;5.60;3.87;;;39.70;24.80;;;;;;5014058;28;20179;-74
2023/05/27 07:48:16;;;;;;;3.70;2.90;;;39.90;25.10;;;;;;5013884;28;20196;-73
2023/05/27 07:50:42;;;;;;;5.27;3.20;;;39.50;23.90;;;;;;5013479;28;20243;-73
2023/05/27 07:53:08;;;;;;;5.13;3.27;;;39.90;24.60;;;;;;5014296;28;20183;-73
2023/05/27 07:55:34;;;;;;;5.43;3.67;;;39.70;23.80;;;;;;5014450;28;20180;-71
2023/05/27 07:57:59;;;;;;;6.23;4.40;;;39.70;24.10;;;;;;5011339;28;20761;-73
2023/05/27 08:00:25;;;;;;;7.20;3.57;;;40.30;23.90;;;;;;5011836;28;20172;-71
2023/05/27 08:02:50;;;;;;;5.67;4.00;;;40.90;24.10;;;;;;5011681;28;20226;-71
2023/05/27 08:05:16;;;;;;;8.77;3.40;;;41.30;23.60;;;;;;5011646;28;20184;-72
2023/05/27 08:07:41;;;;;;;4.90;4.43;;;41.40;23.10;;;;;;5011361;28;20203;-71
2023/05/27 08:10:08;;;;;;;4.40;3.13;;;40.50;22.60;;;;;;5011591;28;20164;-71
2023/05/27 08:12:33;;;;;;;6.43;3.83;;;40.30;23.10;;;;;;5011530;28;20187;-72
2023/05/27 08:14:59;;;;;;;9.77;8.77;;;41.10;23.40;;;;;;5012017;28;20656;-71
2023/05/27 08:17:24;;;;;;;5.17;3.53;;;41.80;23.50;;;;;;5011396;28;20203;-73
2023/05/27 08:19:50;;;;;;;6.77;3.20;;;42.40;23.00;;;;;;5014492;28;20183;-73
2023/05/27 08:22:15;;;;;;;3.50;2.90;;;42.90;22.50;;;;;;4997555;28;20183;-73
2023/05/27 08:24:41;;;;;;;5.53;3.63;;;43.60;22.40;;;;;;5015190;28;20226;-73
2023/05/27 08:27:17;;;;;;;7.10;4.37;;;44.10;21.70;;;;;;5015067;28;20180;-73
2023/05/27 08:29:43;;;;;;;5.40;3.83;;;44.20;21.40;;;;;;5015277;28;20249;-73
2023/05/27 08:32:09;;;;;;;5.83;3.30;;;44.40;20.90;;;;;;5015487;28;20891;-72
2023/05/27 08:34:35;;;;;;;4.53;2.90;;;44.70;20.40;;;;;;5015161;28;20436;-73
2023/05/27 08:37:01;;;;;;;5.07;3.23;;;45.00;21.80;;;;;;5014460;28;20770;-73
2023/05/27 08:39:27;;;;;;;8.60;4.50;;;45.90;21.40;;;;;;5014672;28;20251;-73
2023/05/27 08:41:53;;;;;;;4.40;3.80;;;46.60;21.30;;;;;;5017073;28;20494;-74
2023/05/27 08:44:21;;;;;;;5.53;4.27;;;47.60;21.00;;;;;;5017264;28;20519;-73
2023/05/27 08:46:48;;;;;;;4.40;3.40;;;48.40;20.00;;;;;;5017277;28;20431;-73
2023/05/27 08:49:14;;;;;;;9.53;4.47;;;49.10;20.50;;;;;;5016829;28;20431;-73
2023/05/27 08:51:40;;;;;;;4.60;4.00;;;49.50;19.20;;;;;;5017036;28;20373;-73
2023/05/27 08:54:08;;;;;;;4.53;3.20;;;49.50;19.10;;;;;;5017350;28;20200;-74
2023/05/27 08:56:35;;;;;;;6.20;3.93;;;49.80;18.80;;;;;;5017605;28;20415;-73
2023/05/27 08:59:01;;;;;;;4.77;3.90;;;50.10;19.00;;;;;;5014980;28;20462;-72
2023/05/27 09:01:27;;;;;;;6.37;4.10;;;50.50;18.40;;;;;;5014464;28;20498;-72
2023/05/27 09:03:54;;;;;;;5.70;4.50;;;50.90;18.30;;;;;;5014384;28;20169;-73
2023/05/27 09:06:20;;;;;;;5.43;4.83;;;51.40;18.70;;;;;;5014180;28;20410;-73
2023/05/27 09:08:46;;;;;;;7.40;4.17;;;51.30;17.50;;;;;;5014142;28;20426;-73
2023/05/27 09:11:30;;;;;;;4.33;3.50;;;51.70;18.10;;;;;;5014273;28;20539;-73
2023/05/27 09:13:56;;;;;;;7.00;4.20;;;52.00;17.50;;;;;;5014412;28;20266;-73
2023/05/27 09:16:22;;;;;;;6.43;4.00;;;52.10;17.60;;;;;;5014678;28;20421;-72
2023/05/27 09:18:48;;;;;;;4.70;4.30;;;52.10;18.00;;;;;;5013367;28;20952;-72
2023/05/27 09:21:13;;;;;;;7.30;4.27;;;52.60;17.60;;;;;;5013967;28;20231;-73
2023/05/27 09:23:39;;;;;;;3.43;3.13;;;52.90;17.40;;;;;;5013553;28;20809;-72
2023/05/27 09:26:12;;;;;;;6.83;4.03;;;53.40;17.60;;;;;;5013457;28;20223;-72
2023/05/27 09:28:38;;;;;;;5.23;4.47;;;53.80;17.40;;;;;;5012870;28;20441;-72
2023/05/27 09:31:06;;;;;;;5.33;3.63;;;54.00;17.50;;;;;;5012663;28;20485;-72
2023/05/27 09:33:34;;;;;;;4.90;4.20;;;54.50;17.40;;;;;;5013619;28;20194;-71
2023/05/27 09:36:01;;;;;;;4.43;4.03;;;55.10;17.40;;;;;;5013704;28;20407;-69
2023/05/27 09:38:30;;;;;;;5.30;4.80;;;55.40;16.70;;;;;;5013211;28;20465;-71
2023/05/27 09:40:57;;;;;;;5.00;4.50;;;55.40;16.00;;;;;;5013661;28;20923;-70
2023/05/27 09:43:24;;;;;;;4.30;3.90;;;55.40;16.20;;;;;;5013613;28;20406;-69
2023/05/27 09:45:52;;;;;;;5.87;4.80;;;55.40;16.60;;;;;;5013559;28;20402;-70
2023/05/27 09:48:20;;;;;;;4.93;4.53;;;55.50;16.50;;;;;;5013070;28;20427;-69
2023/05/27 09:50:47;;;;;;;5.37;4.13;;;55.60;16.50;;;;;;5013448;28;20414;-70
2023/05/27 09:53:13;;;;;;;4.30;4.00;;;55.80;16.30;;;;;;5013382;28;20398;-70
2023/05/27 09:55:41;;;;;;;5.53;4.67;;;55.90;16.40;;;;;;5013370;28;20403;-70
2023/05/27 09:58:07;;;;;;;5.70;4.30;;;56.20;16.50;;;;;;5012960;28;20450;-71
2023/05/27 10:00:33;;;;;;;5.00;4.50;;;56.40;16.20;;;;;;5013793;28;20403;-70
2023/05/27 10:03:00;;;;;;;4.83;4.43;;;56.60;16.20;;;;;;5013556;28;20167;-70
2023/05/27 10:05:27;;;;;;;10.00;6.10;;;55.90;15.00;;;;;;5013535;28;20896;-71
2023/05/27 10:07:52;;;;;;;6.33;4.70;;;55.60;15.40;;;;;;5013052;28;20430;-74
2023/05/27 10:10:20;;;;;;;5.10;4.60;;;55.70;16.00;;;;;;5013409;28;20407;-71
2023/05/27 10:12:47;;;;;;;4.87;4.47;;;55.60;15.50;;;;;;5013088;28;20686;-71
2023/05/27 10:15:28;;;;;;;4.77;4.07;;;55.40;15.30;;;;;;5013061;28;20804;-69
2023/05/27 10:17:55;;;;;;;6.20;4.90;;;55.60;15.90;;;;;;5012416;28;20933;-69
2023/05/27 10:20:37;;;;;;;6.30;4.23;;;55.80;15.60;;;;;;5012702;28;20411;-69
2023/05/27 10:23:27;;;;;;;6.10;4.77;;;56.10;15.80;;;;;;5012859;28;20439;-70
2023/05/27 10:25:55;;;;;;;8.97;5.37;;;55.80;14.60;;;;;;5012842;28;20494;-71
2023/05/27 10:28:35;;;;;;;8.73;5.90;;;54.70;14.60;;;;;;5012422;28;20427;-69
2023/05/27 10:31:18;;;;;;;6.53;3.83;;;54.70;15.50;;;;;;5012639;28;20434;-69
2023/05/27 10:33:49;;;;;;;7.90;4.67;;;55.00;15.80;;;;;;5012608;28;20446;-70
2023/05/27 10:36:28;;;;;;;5.00;4.50;;;55.50;15.80;;;;;;5012681;28;20406;-69
2023/05/27 10:38:58;;;;;;;4.80;4.40;;;55.00;14.80;;;;;;5012286;28;20959;-70
2023/05/27 10:41:25;;;;;;;4.40;4.00;;;54.90;16.10;;;;;;5014598;28;20411;-70
2023/05/27 10:43:58;;;;;;;5.17;4.10;;;55.50;16.30;;;;;;5014729;28;20407;-71
2023/05/27 10:46:24;;;;;;;5.07;4.57;;;56.00;15.80;;;;;;5015041;28;20406;-70
2023/05/27 10:48:50;;;;;;;4.67;4.17;;;56.60;15.70;;;;;;5012298;28;20438;-70
2023/05/27 10:51:15;;;;;;;6.43;4.90;;;57.10;15.80;;;;;;5012540;28;20469;-70
2023/05/27 10:53:41;;;;;;;5.47;4.83;;;57.40;15.50;;;;;;5012421;28;20168;-70
2023/05/27 10:56:08;;;;;;;6.03;4.53;;;57.70;15.30;;;;;;5012502;28;20225;-71
2023/05/27 10:58:35;;;;;;;6.20;4.30;;;58.00;15.50;;;;;;5011638;28;20253;-70
2023/05/27 11:01:08;;;;;;;4.97;4.30;;;57.90;15.30;;;;;;5012389;28;20441;-70
2023/05/27 11:03:34;;;;;;;5.37;4.87;;;58.00;15.50;;;;;;5012400;28;20921;-70
2023/05/27 11:06:06;;;;;;;5.83;4.83;;;58.10;15.50;;;;;;5012258;28;20406;-70
2023/05/27 11:08:32;;;;;;;5.30;4.80;;;58.40;15.50;;;;;;5013845;28;20215;-72
2023/05/27 11:11:03;;;;;;;5.07;4.60;;;58.50;15.50;;;;;;5014366;28;20867;-72
2023/05/27 11:13:45;;;;;;;4.97;4.50;;;58.60;15.50;;;;;;5014539;28;20431;-71
2023/05/27 11:16:12;;;;;;;6.37;4.67;;;58.50;15.30;;;;;;5012106;28;20410;-71
2023/05/27 11:18:43;;;;;;;5.60;5.10;;;58.60;15.10;;;;;;5011749;28;20450;-70
2023/05/27 11:21:11;;;;;;;5.17;4.67;;;58.40;14.90;;;;;;5012210;28;20768;-70
2023/05/27 11:23:42;;;;;;;4.43;4.10;;;58.40;14.90;;;;;;5012156;28;20399;-67
2023/05/27 11:26:26;;;;;;;5.43;4.83;;;58.20;15.00;;;;;;5012198;28;20881;-68
2023/05/27 11:28:56;;;;;;;4.83;3.80;;;58.10;15.00;;;;;;5011695;28;20505;-68
2023/05/27 11:31:28;;;;;;;5.17;4.67;;;58.20;14.90;;;;;;5012154;28;20398;-70
2023/05/27 11:33:53;;;;;;;5.20;4.17;;;58.10;15.00;;;;;;5012060;28;20911;-70
2023/05/27 11:36:21;;;;;;;5.30;4.87;;;58.00;15.20;;;;;;5011927;28;20413;-70
2023/05/27 11:38:55;;;;;;;5.60;4.80;;;58.00;15.10;;;;;;5011601;28;20820;-69
2023/05/27 11:41:25;;;;;;;5.93;5.43;;;58.00;14.90;;;;;;5012235;28;20741;-70
2023/05/27 11:44:03;;;;;;;5.00;4.20;;;58.00;15.00;;;;;;5011996;28;20407;-70
2023/05/27 11:46:42;;;;;;;5.70;4.17;;;57.70;14.80;;;;;;5011931;28;20395;-70
2023/05/27 11:49:12;;;;;;;6.40;4.70;;;57.60;14.80;;;;;;5011574;28;20461;-70
2023/05/27 11:51:48;;;;;;;5.10;4.60;;;57.60;15.30;;;;;;5011834;28;20501;-69
2023/05/27 11:54:20;;;;;;;6.33;4.50;;;57.50;14.90;;;;;;5014443;28;20926;-70
2023/05/27 11:56:47;;;;;;;5.80;4.97;;;57.50;15.00;;;;;;5015907;28;20920;-70
2023/05/27 11:59:13;;;;;;;4.50;4.10;;;57.20;14.80;;;;;;5015391;28;20458;-70
2023/05/27 12:01:39;;;;;;;4.17;3.87;;;57.10;15.20;;;;;;5015686;28;20509;-71
2023/05/27 12:04:05;;;;;;;5.27;4.27;;;56.90;15.30;;;;;;4997801;28;20402;-70
2023/05/27 12:06:31;;;;;;;5.93;4.47;;;56.90;15.00;;;;;;5015359;28;20490;-70
2023/05/27 12:08:57;;;;;;;5.07;4.57;;;56.80;14.70;;;;;;5015101;28;20505;-71
2023/05/27 12:11:22;;;;;;;5.53;4.70;;;56.70;14.50;;;;;;5015317;28;20168;-70
2023/05/27 12:13:48;;;;;;;4.50;4.03;;;56.80;14.60;;;;;;5015457;28;20176;-70
2023/05/27 12:16:13;;;;;;;4.73;4.33;;;56.80;14.70;;;;;;5015596;28;20190;-70
2023/05/27 12:18:41;;;;;;;7.90;6.50;;;56.90;14.60;;;;;;5015055;28;20250;-70
2023/05/27 12:21:07;;;;;;;3.90;3.60;;;56.70;14.50;;;;;;5015329;28;20160;-70
2023/05/27 12:23:33;;;;;;;4.70;4.40;;;56.80;14.70;;;;;;5015421;28;20489;-70
2023/05/27 12:26:00;;;;;;;5.13;4.73;;;56.70;15.10;;;;;;5015688;28;20942;-70
2023/05/27 12:28:26;;;;;;;5.47;4.10;;;56.50;14.70;;;;;;5015021;28;20510;-70
2023/05/27 12:30:51;;;;;;;5.10;4.70;;;56.40;14.40;;;;;;5015369;28;20199;-70
2023/05/27 12:33:17;;;;;;;4.23;3.83;;;56.20;15.00;;;;;;5015234;28;20435;-70
2023/05/27 12:35:43;;;;;;;5.27;4.30;;;56.10;15.30;;;;;;5015355;28;20190;-70
2023/05/27 12:38:08;;;;;;;5.33;3.80;;;55.90;15.00;;;;;;5014856;28;20219;-70
2023/05/27 12:40:34;;;;;;;4.90;4.40;;;55.70;14.80;;;;;;5015228;28;20164;-70
2023/05/27 12:43:00;;;;;;;5.23;4.70;;;55.50;14.90;;;;;;5015261;28;20164;-70
2023/05/27 12:45:25;;;;;;;4.20;3.80;;;55.30;15.30;;;;;;5015276;28;20164;-70
2023/05/27 12:47:52;;;;;;;5.07;3.90;;;55.20;15.40;;;;;;5014977;28;20235;-70